Time;durP1;ratioP1;P1;durP2;ratioP2;P2;SDS_P1;SDS_P2;PMS_P1;PMS_P2;Temp;Humidity;BMP_temperature;BMP_pressure;BME280_temperature;BME280_humidity;BME280_pressure;Samples;Min_cycle;Max_cycle;Signal;HPM_P1;HPM_P2
2021/07/27 00:01:49;;;;;;;;;2.00;2.00;;;;;29.65;60.79;98274.25;6276657;22;8809;-74
2021/07/27 00:04:18;;;;;;;;;1.25;1.25;;;;;29.64;60.46;98278.91;6276521;22;8864;-74
2021/07/27 00:06:46;;;;;;;;;2.00;2.00;;;;;29.67;60.30;98280.81;6276645;22;8791;-74
2021/07/27 00:09:15;;;;;;;;;2.40;2.40;;;;;29.68;60.50;98287.03;6277495;22;8779;-74
2021/07/27 00:11:43;;;;;;;;;3.00;3.00;;;;;29.68;60.55;98287.03;6276330;22;8795;-74
2021/07/27 00:14:12;;;;;;;;;2.25;2.25;;;;;29.70;60.52;98288.16;6276537;22;8787;-74
2021/07/27 00:16:40;;;;;;;;;1.80;1.80;;;;;29.72;60.66;98288.53;6276659;22;8782;-74
2021/07/27 00:19:09;;;;;;;;;2.75;2.75;;;;;29.72;60.58;98288.53;6276452;22;8771;-74
2021/07/27 00:21:38;;;;;;;;;3.20;3.20;;;;;29.70;60.32;98288.16;6276666;22;8803;-74
2021/07/27 00:24:06;;;;;;;;;1.75;1.75;;;;;29.70;60.15;98290.88;6276431;22;8872;-74
2021/07/27 00:26:36;;;;;;;;;1.80;1.80;;;;;29.74;60.39;98297.06;6277077;22;8801;-74
2021/07/27 00:29:04;;;;;;;;;4.25;4.25;;;;;29.75;60.59;98292.38;6276352;22;8787;-74
2021/07/27 00:31:33;;;;;;;;;1.80;1.80;;;;;29.77;60.44;98292.75;6276368;22;8779;-73
2021/07/27 00:34:01;;;;;;;;;1.80;1.80;;;;;29.79;60.47;98293.91;6276218;22;8779;-73
2021/07/27 00:36:30;;;;;;;;;2.50;2.50;;;;;29.80;59.77;98300.09;6275831;22;8795;-74
2021/07/27 00:38:58;;;;;;;;;1.00;1.00;;;;;29.82;60.40;98300.47;6275946;22;8815;-75
2021/07/27 00:41:27;;;;;;;;;1.80;1.80;;;;;29.81;60.18;98296.22;6276002;22;8779;-74
2021/07/27 00:43:55;;;;;;;;;2.80;2.80;;;;;29.91;59.89;98302.66;6274639;22;8783;-74
2021/07/27 00:46:24;;;;;;;;;1.20;1.20;;;;;29.92;59.82;98301.50;6276051;22;8783;-73
2021/07/27 00:48:53;;;;;;;;;1.60;1.60;;;;;29.95;59.56;98301.44;6276285;22;8840;-73
2021/07/27 00:51:21;;;;;;;;;3.25;3.25;;;;;29.97;59.89;98296.38;6275960;22;8799;-73
2021/07/27 00:53:50;;;;;;;;;2.20;2.20;;;;;30.00;59.51;98297.50;6275883;22;8852;-73
2021/07/27 00:56:19;;;;;;;;;2.00;2.00;;;;;30.03;59.67;98294.00;6276060;22;8802;-73
2021/07/27 00:58:48;;;;;;;;;3.40;3.40;;;;;30.04;59.47;98292.84;6275849;22;8802;-75
2021/07/27 01:01:16;;;;;;;;;2.00;2.00;;;;;30.08;59.46;98290.84;6275803;22;8799;-75
2021/07/27 01:03:45;;;;;;;;;1.00;1.00;;;;;30.12;59.33;98289.63;6274207;22;8874;-74
2021/07/27 01:06:14;;;;;;;;;2.00;2.00;;;;;30.15;59.58;98293.47;6275593;22;8817;-74
2021/07/27 01:08:43;;;;;;;;;2.50;2.50;;;;;30.15;59.38;98285.31;6275068;22;8791;-75
2021/07/27 01:11:22;;;;;;;;;2.60;2.60;;;;;30.23;59.18;98280.56;6276020;22;8791;-75
2021/07/27 01:13:51;;;;;;;;;3.00;3.00;;;;;30.23;58.80;98266.94;6275641;22;8795;-75
2021/07/27 01:16:28;;;;;;;;;3.40;3.40;;;;;30.30;58.82;98275.78;6274764;22;8791;-75
2021/07/27 01:38:10;;;;;;;;;1.60;1.60;;;;;30.48;58.07;98287.19;6275285;22;8786;-75
2021/07/27 01:43:29;;;;;;;;;1.00;1.00;;;;;30.47;57.98;98301.22;6275261;22;8806;-78
2021/07/27 01:45:59;;;;;;;;;0.80;0.80;;;;;30.46;57.63;98303.16;6275349;22;8823;-76
2021/07/27 01:48:44;;;;;;;;;2.00;2.00;;;;;30.48;57.37;98313.63;6274988;22;8842;-75
2021/07/27 01:51:31;;;;;;;;;1.20;1.20;;;;;30.47;57.16;98312.88;6274661;22;8864;-74
2021/07/27 01:54:02;;;;;;;;;1.20;1.20;;;;;30.48;57.85;98308.97;6274429;22;8856;-75
2021/07/27 01:56:31;;;;;;;;;1.60;1.60;;;;;30.41;57.93;98295.47;6274929;22;8803;-74
2021/07/27 01:59:00;;;;;;;;;1.80;1.80;;;;;30.46;57.58;98303.16;6274370;22;8810;-73
2021/07/27 02:01:28;;;;;;;;;0.60;0.60;;;;;30.40;57.50;98290.44;6274833;22;8795;-73
2021/07/27 02:03:57;;;;;;;;;2.40;2.40;;;;;30.50;57.29;98309.34;6274907;22;8799;-71
2021/07/27 02:06:26;;;;;;;;;1.00;1.00;;;;;30.50;57.22;98309.34;6274985;22;8798;-73
2021/07/27 02:08:55;;;;;;;;;1.40;1.40;;;;;30.49;57.00;98307.78;6272674;22;8810;-72
2021/07/27 02:11:30;;;;;;;;;2.00;2.00;;;;;30.51;57.18;98316.31;6274629;22;8787;-75
2021/07/27 02:14:00;;;;;;;;;1.20;1.20;;;;;30.52;57.28;98323.31;6273909;22;8830;-72
2021/07/27 02:16:28;;;;;;;;;2.00;2.00;;;;;30.54;57.16;98322.88;6274559;22;8833;-72
2021/07/27 02:19:01;;;;;;;;;2.00;2.00;;;;;30.59;57.06;98322.47;6274655;22;9536;-73
2021/07/27 02:21:30;;;;;;;;;1.80;1.80;;;;;30.63;56.90;98328.63;6274801;22;8806;-73
2021/07/27 02:24:02;;;;;;;;;1.60;1.60;;;;;30.65;56.55;98328.22;6249463;22;8818;-73
2021/07/27 02:26:30;;;;;;;;;1.20;1.20;;;;;30.69;56.88;98328.94;6276310;22;8787;-72
2021/07/27 02:28:59;;;;;;;;;1.60;1.60;;;;;30.71;57.04;98337.47;6276579;22;8827;-72
2021/07/27 02:31:32;;;;;;;;;2.20;2.20;;;;;30.73;57.34;98326.94;6274344;22;9516;-73
2021/07/27 02:34:02;;;;;;;;;2.80;2.80;;;;;30.72;57.28;98322.66;6275484;22;8897;-73
2021/07/27 02:36:31;;;;;;;;;3.00;3.00;;;;;30.72;57.10;98331.59;6275466;22;8787;-73
2021/07/27 02:39:06;;;;;;;;;4.50;4.50;;;;;30.74;56.68;98326.53;6275791;22;8791;-74
2021/07/27 02:41:35;;;;;;;;;2.20;2.20;;;;;30.76;56.60;98326.13;6275468;22;8815;-74
2021/07/27 02:44:03;;;;;;;;;4.75;4.75;;;;;30.80;56.29;98324.88;6276224;22;8791;-73
2021/07/27 02:46:33;;;;;;;;;4.00;4.00;;;;;30.83;56.33;98326.00;6276995;22;9532;-74
2021/07/27 02:49:03;;;;;;;;;5.20;5.20;;;;;30.88;56.10;98325.53;6276863;22;8783;-72
2021/07/27 02:51:32;;;;;;;;;4.20;4.20;;;;;30.94;56.35;98332.06;6276538;22;8810;-73
2021/07/27 02:54:01;;;;;;;;;5.80;5.20;;;;;31.01;56.30;98328.47;6274681;22;8795;-75
2021/07/27 02:56:30;;;;;;;;;6.25;6.25;;;;;31.07;56.61;98327.56;6275911;22;8813;-75
2021/07/27 02:58:58;;;;;;;;;9.00;9.00;;;;;31.14;56.38;98330.22;6276222;22;8882;-73
2021/07/27 03:01:27;;;;;;;;;9.50;9.50;;;;;31.20;55.55;98330.53;6276204;22;8798;-74
2021/07/27 03:03:56;;;;;;;;;5.40;5.40;;;;;31.21;55.81;98334.75;6275374;22;8929;-75
2021/07/27 03:06:31;;;;;;;;;10.50;9.75;;;;;31.23;55.54;98326.94;6275616;22;8864;-74
2021/07/27 03:11:51;;;;;;;;;3.80;2.60;;;;;31.36;55.39;98310.75;6275986;22;8747;-75
2021/07/27 03:14:20;;;;;;;;;4.80;4.80;;;;;31.47;55.54;98324.97;6274944;22;8795;-74
2021/07/27 03:16:49;;;;;;;;;4.40;4.40;;;;;31.53;55.63;98323.31;6275640;22;9221;-74
2021/07/27 03:19:18;;;;;;;;;4.60;4.60;;;;;31.59;55.56;98323.59;6275058;22;8786;-74
2021/07/27 03:22:10;;;;;;;;;3.40;3.40;;;;;31.65;55.77;98322.69;6275704;22;8861;-73
2021/07/27 03:25:02;;;;;;;;;8.75;8.75;;;;;31.72;55.25;98321.81;6272821;22;8755;-74
2021/07/27 03:28:01;;;;;;;;;11.00;11.00;;;;;31.76;54.88;98320.56;6274238;22;8807;-74
2021/07/27 03:30:30;;;;;;;;;5.40;5.40;;;;;31.75;54.06;98310.84;6275129;22;8861;-75
2021/07/27 03:32:59;;;;;;;;;6.40;6.40;;;;;31.83;54.86;98324.34;6248651;22;8825;-74
2021/07/27 03:35:28;;;;;;;;;3.20;3.20;;;;;31.86;54.90;98315.34;6274588;22;8818;-73
2021/07/27 03:37:56;;;;;;;;;9.20;8.40;;;;;31.87;54.37;98311.41;6274770;22;9928;-73
2021/07/27 03:40:25;;;;;;;;;6.80;6.80;;;;;31.91;54.53;98312.88;6274920;22;8783;-74
2021/07/27 03:42:54;;;;;;;;;3.00;2.40;;;;;31.95;54.92;98310.84;6275049;22;8787;-73
2021/07/27 03:45:22;;;;;;;;;9.00;8.00;;;;;31.97;54.47;98304.97;6274618;22;8779;-72
2021/07/27 03:47:51;;;;;;;;;6.80;6.80;;;;;32.06;54.92;98307.91;6275358;22;8799;-72
2021/07/27 03:50:19;;;;;;;;;4.00;4.00;;;;;32.09;54.28;98301.63;6275375;22;8811;-72
2021/07/27 03:52:49;;;;;;;;;4.00;4.00;;;;;32.13;53.95;98298.81;6275757;22;8868;-72
2021/07/27 03:55:40;;;;;;;;;2.60;2.60;;;;;32.20;54.04;98296.72;6275195;22;8751;-72
2021/07/27 03:58:32;;;;;;;;;4.60;3.80;;;;;32.21;53.99;98287.31;6274327;22;8739;-73
2021/07/27 04:01:05;;;;;;;;;2.00;2.00;;;;;32.20;54.26;98283.06;6275139;22;8816;-72
2021/07/27 04:03:34;;;;;;;;;2.80;2.80;;;;;32.26;53.66;98297.00;6275311;22;8787;-74
2021/07/27 04:06:53;;;;;;;;;2.60;2.60;;;;;32.27;53.62;98285.66;6274321;22;8782;-73
2021/07/27 04:09:24;;;;;;;;;3.60;3.60;;;;;32.26;53.52;98275.94;6274600;22;8892;-73
2021/07/27 04:11:53;;;;;;;;;5.20;5.20;;;;;32.40;53.16;98283.06;6275219;22;8779;-72
2021/07/27 04:14:44;;;;;;;;;6.80;6.80;;;;;32.46;53.13;98286.06;6275498;22;8739;-72
2021/07/27 04:17:17;;;;;;;;;5.20;5.20;;;;;32.55;53.14;98280.75;6274522;22;8787;-71
2021/07/27 04:19:49;;;;;;;;;6.20;6.20;;;;;32.61;52.95;98276.31;6275466;22;8787;-73
2021/07/27 04:22:19;;;;;;;;;7.00;7.00;;;;;32.67;52.91;98269.91;6275160;22;8795;-71
2021/07/27 04:24:48;;;;;;;;;5.60;5.60;;;;;32.70;53.12;98254.63;6275216;22;8884;-73
2021/07/27 04:27:17;;;;;;;;;2.80;2.80;;;;;32.79;53.78;98254.84;6274930;22;8876;-72
2021/07/27 04:29:46;;;;;;;;;4.60;4.60;;;;;32.83;52.95;98249.28;6274896;22;8811;-71
2021/07/27 04:32:14;;;;;;;;;5.00;5.00;;;;;32.86;53.12;98251.16;6274937;22;8884;-73
2021/07/27 04:34:43;;;;;;;;;4.20;4.20;;;;;32.91;52.79;98247.91;6274905;22;8802;-73
2021/07/27 04:37:11;;;;;;;;;6.80;6.80;;;;;32.95;52.87;98248.59;6274485;22;8869;-73
2021/07/27 04:39:40;;;;;;;;;3.20;3.20;;;;;32.96;52.66;98244.66;6274875;22;8823;-73
2021/07/27 04:42:12;;;;;;;;;3.40;3.40;;;;;32.98;52.68;98234.84;6275460;22;8821;-73
2021/07/27 04:44:40;;;;;;;;;2.20;2.20;;;;;33.05;52.93;98240.13;6275560;22;8878;-73
2021/07/27 04:47:31;;;;;;;;;2.00;2.00;;;;;33.07;53.08;98226.03;6272869;22;8748;-73
2021/07/27 04:50:00;;;;;;;;;3.60;3.60;;;;;33.12;52.69;98235.69;6272787;22;8830;-73
2021/07/27 04:52:30;;;;;;;;;5.60;5.60;;;;;33.16;52.65;98228.16;6273384;22;8815;-73
2021/07/27 04:54:59;;;;;;;;;2.80;2.80;;;;;33.20;52.85;98226.09;6272760;22;8795;-72
2021/07/27 04:57:27;;;;;;;;;3.40;3.40;;;;;33.22;52.72;98234.66;6271178;22;8818;-75
2021/07/27 04:59:56;;;;;;;;;4.00;4.00;;;;;33.23;52.76;98222.50;6273197;22;8890;-72
2021/07/27 05:02:25;;;;;;;;;1.80;1.80;;;;;33.29;52.29;98223.56;6246375;22;8824;-73
2021/07/27 05:04:54;;;;;;;;;2.60;2.60;;;;;33.34;53.00;98218.31;6246959;22;8806;-74
2021/07/27 05:07:22;;;;;;;;;3.80;3.80;;;;;33.41;52.43;98214.63;6272950;22;8794;-75
2021/07/27 05:09:51;;;;;;;;;2.80;2.80;;;;;33.50;52.81;98211.25;6274012;22;8802;-73
2021/07/27 05:12:20;;;;;;;;;2.20;2.20;;;;;33.58;51.78;98202.44;6273350;22;8827;-72
2021/07/27 05:14:48;;;;;;;;;3.00;3.00;;;;;33.68;52.13;98189.66;6272685;22;8803;-73
2021/07/27 05:17:17;;;;;;;;;2.00;2.00;;;;;33.71;52.65;98172.38;6273672;22;8803;-74
2021/07/27 05:19:52;;;;;;;;;3.00;3.00;;;;;33.76;51.97;98171.84;6273824;22;9590;-73
2021/07/27 05:22:43;;;;;;;;;3.00;3.00;;;;;33.85;53.03;98182.13;6275577;22;8751;-74
2021/07/27 05:25:35;;;;;;;;;1.80;1.80;;;;;33.92;51.59;98170.97;6269419;22;8771;-74
2021/07/27 05:28:08;;;;;;;;;0.80;0.80;;;;;33.95;51.60;98178.31;6274881;22;8826;-74
2021/07/27 05:30:37;;;;;;;;;2.00;2.00;;;;;33.97;51.17;98178.63;6275089;22;8856;-75
2021/07/27 05:33:29;;;;;;;;;3.40;3.00;;;;;34.04;51.12;98175.69;6275901;22;8739;-75
2021/07/27 05:47:35;;;;;;;;;2.60;2.60;;;;;34.27;49.33;98166.38;5085156;27;13502;-71
2021/07/27 05:50:09;;;;;;;;;2.00;2.00;;;;;34.38;50.56;98169.56;5068123;28;8886;-71
2021/07/27 05:52:37;;;;;;;;;3.00;3.00;;;;;34.40;50.50;98174.59;5067639;28;8862;-71
2021/07/27 05:55:10;;;;;;;;;2.00;2.00;;;;;34.31;49.99;98143.19;5068274;28;8891;-67
2021/07/27 05:57:38;;;;;;;;;1.80;1.80;;;;;34.43;48.72;98146.34;5068125;28;8944;-72
2021/07/27 06:00:07;;;;;;;;;0.20;0.20;;;;;34.60;49.44;98153.97;5067877;28;8915;-69
2021/07/27 06:02:35;;;;;;;;;1.00;1.00;;;;;34.45;49.51;98122.00;5066339;28;8838;-70
2021/07/27 06:05:04;;;;;;;;;2.00;2.00;;;;;34.51;49.00;98131.19;5066998;28;8838;-68
2021/07/27 06:07:33;;;;;;;;;2.00;2.00;;;;;34.51;48.55;98137.44;5066681;28;8850;-68
2021/07/27 06:10:01;;;;;;;;;2.80;2.80;;;;;34.49;48.72;98139.09;5067795;28;8865;-68
2021/07/27 06:12:30;;;;;;;;;7.00;7.00;;;;;34.49;49.22;98144.56;5067773;28;8831;-68
2021/07/27 06:14:59;;;;;;;;;5.20;5.20;;;;;34.48;48.57;98138.31;5067665;28;8854;-68
2021/07/27 06:17:31;;;;;;;;;7.80;7.80;;;;;34.50;48.87;98137.88;5067755;28;8850;-68
2021/07/27 06:19:59;;;;;;;;;2.00;2.00;;;;;34.53;48.56;98137.00;5067626;28;8928;-68
2021/07/27 06:22:28;;;;;;;;;3.60;3.60;;;;;34.56;50.92;98141.59;5067709;28;8838;-68
2021/07/27 06:24:58;;;;;;;;;3.60;3.60;;;;;34.49;48.90;98125.41;5067538;28;8846;-69
2021/07/27 06:27:26;;;;;;;;;3.20;3.20;;;;;34.56;48.55;98134.16;5067757;28;8850;-69
2021/07/27 06:29:55;;;;;;;;;4.20;4.20;;;;;34.55;48.73;98135.34;5067470;28;8850;-68
2021/07/27 06:32:24;;;;;;;;;1.00;1.00;;;;;34.64;50.28;98138.19;5067729;28;9645;-68
2021/07/27 06:34:53;;;;;;;;;1.60;1.60;;;;;34.64;50.07;98135.44;5067292;28;8854;-68
2021/07/27 06:37:21;;;;;;;;;1.60;1.60;;;;;34.70;48.52;98140.34;5067091;28;8854;-68
2021/07/27 06:39:50;;;;;;;;;0.80;0.80;;;;;34.65;49.63;98141.69;5067195;28;8927;-68
2021/07/27 06:42:19;;;;;;;;;2.00;2.00;;;;;34.60;48.41;98136.75;5067178;28;8846;-68
2021/07/27 06:44:48;;;;;;;;;2.40;1.80;;;;;34.54;48.72;98136.56;5067051;28;8839;-68
2021/07/27 06:47:18;;;;;;;;;2.20;2.20;;;;;34.46;48.60;98129.78;5060644;28;8850;-68
2021/07/27 06:49:46;;;;;;;;;3.60;3.60;;;;;34.42;49.44;98120.91;5053832;28;8858;-68
2021/07/27 06:52:20;;;;;;;;;2.80;2.80;;;;;34.46;49.66;98134.50;5052612;28;8850;-68
2021/07/27 06:54:48;;;;;;;;;2.00;2.00;;;;;34.39;49.21;98130.03;5053966;28;8916;-68
2021/07/27 06:57:17;;;;;;;;;3.80;3.80;;;;;34.29;49.70;98120.91;5053763;28;8839;-68
2021/07/27 06:59:46;;;;;;;;;2.60;2.60;;;;;34.23;49.72;98116.44;5053915;28;8959;-68
2021/07/27 07:02:14;;;;;;;;;2.00;2.00;;;;;34.20;50.73;98106.38;5052480;28;8851;-68
2021/07/27 07:04:44;;;;;;;;;3.80;3.80;;;;;34.27;50.35;98108.88;5052633;28;8839;-68
2021/07/27 07:07:12;;;;;;;;;3.00;3.00;;;;;34.25;50.41;98109.31;5068700;28;8842;-68
2021/07/27 07:09:40;;;;;;;;;4.80;4.80;;;;;34.29;50.12;98109.19;5053537;28;8928;-68
2021/07/27 07:12:10;;;;;;;;;4.00;4.00;;;;;34.17;50.41;98091.59;5053333;28;8839;-68
2021/07/27 07:14:40;;;;;;;;;1.00;1.00;;;;;34.31;50.19;98088.41;5053222;28;8859;-69
2021/07/27 07:17:11;;;;;;;;;2.80;2.80;;;;;34.38;50.33;98094.88;5053194;28;8861;-68
2021/07/27 07:19:41;;;;;;;;;1.80;1.80;;;;;34.34;50.55;98082.06;5053285;28;8873;-68
2021/07/27 07:22:09;;;;;;;;;3.60;3.60;;;;;34.48;50.93;98082.78;5052237;28;8850;-68
2021/07/27 07:24:37;;;;;;;;;1.60;1.60;;;;;34.56;49.78;98079.38;5053075;28;8854;-68
2021/07/27 07:27:07;;;;;;;;;2.00;2.00;;;;;34.64;49.58;98079.88;5053056;28;8847;-68
2021/07/27 07:29:36;;;;;;;;;3.60;3.60;;;;;34.69;49.47;98068.38;5053068;28;8863;-68
2021/07/27 07:32:05;;;;;;;;;3.60;3.60;;;;;34.83;49.07;98064.38;5052080;28;8862;-70
2021/07/27 07:34:33;;;;;;;;;3.00;3.00;;;;;35.06;48.90;98068.66;5052007;28;8867;-71
2021/07/27 07:37:03;;;;;;;;;3.80;3.80;;;;;35.15;48.66;98054.97;5051872;28;8838;-70
2021/07/27 07:39:32;;;;;;;;;3.00;3.00;;;;;35.28;48.70;98048.19;5052213;28;8847;-70
2021/07/27 07:42:04;;;;;;;;;3.20;3.20;;;;;35.50;48.01;98052.91;5052078;28;8851;-70
2021/07/27 07:44:36;;;;;;;;;2.20;2.20;;;;;35.64;48.44;98047.63;5051641;28;8866;-70
2021/07/27 07:47:05;;;;;;;;;0.60;0.60;;;;;35.79;48.58;98036.09;5051597;28;8858;-70
2021/07/27 07:49:33;;;;;;;;;3.20;3.20;;;;;35.93;47.15;98033.56;5067065;28;8875;-70
2021/07/27 07:52:04;;;;;;;;;2.00;2.00;;;;;36.06;47.34;98036.19;5051766;28;8843;-70
2021/07/27 07:54:34;;;;;;;;;2.00;2.00;;;;;36.20;47.25;98040.31;5052206;28;8862;-68
2021/07/27 07:57:03;;;;;;;;;3.00;3.00;;;;;36.34;46.93;98031.50;5052421;28;9606;-67
2021/07/27 07:59:31;;;;;;;;;2.20;2.20;;;;;36.37;46.91;98025.09;5051511;28;8847;-67
2021/07/27 08:02:00;;;;;;;;;1.00;1.00;;;;;36.48;46.38;98017.13;5052386;28;8849;-67
2021/07/27 08:04:29;;;;;;;;;0.80;0.80;;;;;36.60;47.72;98023.69;5052423;28;8861;-69
2021/07/27 08:06:57;;;;;;;;;1.60;1.60;;;;;36.64;46.67;98021.56;5052287;28;8847;-69
2021/07/27 08:09:26;;;;;;;;;2.00;2.00;;;;;36.74;46.31;98016.81;5052321;28;8868;-69
2021/07/27 08:11:54;;;;;;;;;2.00;2.00;;;;;36.64;46.69;97999.56;5052212;28;8916;-68
2021/07/27 08:14:25;;;;;;;;;1.60;1.60;;;;;36.74;46.06;98012.06;5052151;28;8869;-69
2021/07/27 08:16:55;;;;;;;;;2.20;2.20;;;;;36.76;45.39;98017.13;5052283;28;8976;-69
2021/07/27 08:19:24;;;;;;;;;1.40;1.40;;;;;36.65;45.60;98003.06;5052092;28;8850;-69
2021/07/27 08:21:53;;;;;;;;;2.00;2.00;;;;;36.62;46.91;98015.75;5052322;28;8850;-69
2021/07/27 08:24:21;;;;;;;;;0.60;0.60;;;;;36.59;45.84;98013.94;5051890;28;8858;-67
2021/07/27 08:27:13;;;;;;;;;1.00;1.00;;;;;36.59;45.83;98019.41;5052066;28;8822;-69
2021/07/27 08:29:43;;;;;;;;;0.80;0.80;;;;;36.44;46.28;97994.53;5051845;28;8847;-68
2021/07/27 08:32:11;;;;;;;;;1.00;1.00;;;;;36.58;46.43;98009.66;5051851;28;8854;-69
2021/07/27 08:34:42;;;;;;;;;2.00;2.00;;;;;36.55;46.40;98003.09;5051701;28;8855;-67
2021/07/27 08:37:12;;;;;;;;;2.20;2.20;;;;;36.48;48.02;98000.66;5052053;28;8862;-68
2021/07/27 08:39:40;;;;;;;;;1.40;1.40;;;;;36.42;46.61;98004.47;5052198;28;8858;-71
2021/07/27 08:42:08;;;;;;;;;3.40;3.40;;;;;36.35;46.82;97997.31;5052092;28;8866;-69
2021/07/27 08:44:37;;;;;;;;;2.00;2.00;;;;;36.28;46.34;97985.88;5052202;28;8957;-70
2021/07/27 08:47:07;;;;;;;;;2.20;2.20;;;;;36.30;46.88;97986.94;5051979;28;8835;-68
2021/07/27 08:49:35;;;;;;;;;0.80;0.80;;;;;36.26;46.42;97981.59;5052238;28;8839;-67
2021/07/27 08:52:04;;;;;;;;;2.00;2.00;;;;;36.33;49.17;97983.28;5052200;28;8846;-67
2021/07/27 08:54:33;;;;;;;;;1.40;1.40;;;;;36.36;46.77;97987.09;5052222;28;8943;-69
2021/07/27 08:57:12;;;;;;;;;0.60;0.60;;;;;36.34;48.11;97987.56;5052310;28;8839;-70
2021/07/27 08:59:42;;;;;;;;;0.60;0.60;;;;;36.33;46.95;97994.28;5052190;28;8846;-69
2021/07/27 09:02:10;;;;;;;;;1.80;1.80;;;;;36.35;47.35;97980.84;5052019;28;8850;-69
2021/07/27 09:04:40;;;;;;;;;1.00;1.00;;;;;36.31;47.16;97987.72;5052232;28;8861;-67
2021/07/27 09:07:08;;;;;;;;;1.20;1.20;;;;;36.25;46.93;97990.28;5051966;28;8838;-69
2021/07/27 09:09:36;;;;;;;;;1.00;1.00;;;;;36.20;46.91;97986.16;5051732;28;8957;-69
2021/07/27 09:12:09;;;;;;;;;1.00;1.00;;;;;36.22;47.00;97989.22;5052023;28;8953;-69
2021/07/27 09:14:44;;;;;;;;;1.00;1.00;;;;;36.04;46.99;97969.97;5052017;28;8865;-69
2021/07/27 09:17:15;;;;;;;;;1.40;1.40;;;;;36.11;47.09;97988.13;5051870;28;8857;-69
2021/07/27 09:19:43;;;;;;;;;0.80;0.80;;;;;36.02;46.93;97980.66;5051838;28;8968;-69
2021/07/27 09:22:14;;;;;;;;;1.40;1.40;;;;;35.90;47.58;97978.81;5051854;28;8859;-69
2021/07/27 09:24:42;;;;;;;;;1.60;1.60;;;;;35.78;47.42;97983.19;5051826;28;8830;-69
2021/07/27 09:27:12;;;;;;;;;0.80;0.80;;;;;35.75;47.88;97986.06;5051773;28;8850;-69
2021/07/27 09:29:47;;;;;;;;;0.40;0.40;;;;;35.60;48.01;97983.13;5051879;28;8835;-68
2021/07/27 09:32:20;;;;;;;;;2.00;2.00;;;;;35.40;48.79;97988.25;5051727;28;8909;-69
2021/07/27 09:34:50;;;;;;;;;2.00;2.00;;;;;35.12;48.44;97965.41;5051675;28;8850;-69
2021/07/27 09:37:26;;;;;;;;;0.80;0.80;;;;;35.01;49.41;97984.25;5051726;28;8858;-69
2021/07/27 09:40:06;;;;;;;;;0.00;0.00;;;;;34.75;50.41;97989.09;5051667;28;8847;-69
2021/07/27 09:42:36;;;;;;;;;0.80;0.80;;;;;34.43;50.53;97990.25;5051750;28;8859;-68
2021/07/27 09:45:05;;;;;;;;;1.20;1.20;;;;;34.10;51.24;97984.31;5051652;28;8854;-69
2021/07/27 09:47:34;;;;;;;;;0.80;0.80;;;;;33.90;51.20;97995.53;5051558;28;8920;-69
2021/07/27 09:50:02;;;;;;;;;1.00;1.00;;;;;33.71;51.91;97998.06;5051617;28;8862;-69
2021/07/27 09:52:32;;;;;;;;;1.00;1.00;;;;;33.51;52.11;97994.81;5051501;28;8943;-68
2021/07/27 09:55:02;;;;;;;;;1.00;1.00;;;;;33.37;52.67;97996.00;5050231;28;8860;-69
2021/07/27 09:57:30;;;;;;;;;0.80;0.80;;;;;33.24;53.03;97992.47;5051473;28;8850;-68
2021/07/27 10:00:00;;;;;;;;;1.00;1.00;;;;;33.18;53.38;97988.75;5051634;28;9587;-69
2021/07/27 10:02:30;;;;;;;;;1.00;1.00;;;;;33.13;53.38;97988.53;5051423;28;8842;-68
2021/07/27 10:05:00;;;;;;;;;1.80;1.80;;;;;33.06;54.13;97984.81;5051340;28;8838;-69
2021/07/27 10:07:51;;;;;;;;;0.20;0.20;;;;;33.01;53.58;97985.34;5051615;28;9559;-70
2021/07/27 10:10:19;;;;;;;;;1.00;1.00;;;;;32.95;53.70;97987.09;5051387;28;8855;-69
2021/07/27 10:12:48;;;;;;;;;1.40;1.40;;;;;32.87;53.59;97974.81;5051263;28;8857;-68
2021/07/27 10:15:18;;;;;;;;;1.00;1.00;;;;;32.82;53.92;97983.56;5051330;28;8932;-69
2021/07/27 10:17:54;;;;;;;;;0.00;0.00;;;;;32.78;53.55;97963.78;5051356;28;8870;-68
2021/07/27 10:20:26;;;;;;;;;0.60;0.60;;;;;32.75;53.52;97961.88;5051393;28;8939;-69
2021/07/27 10:22:55;;;;;;;;;1.00;1.00;;;;;32.72;53.47;97973.66;5053203;28;8865;-68
2021/07/27 10:25:25;;;;;;;;;0.40;0.40;;;;;32.65;53.45;97960.22;5054912;28;8859;-69
2021/07/27 10:27:55;;;;;;;;;0.60;0.60;;;;;32.65;53.51;97966.44;5054854;28;8897;-68
2021/07/27 10:30:36;;;;;;;;;0.00;0.00;;;;;32.60;53.67;97972.44;5054940;28;8889;-68
2021/07/27 10:33:05;;;;;;;;;1.20;1.20;;;;;32.56;53.69;97969.03;5054802;28;8850;-68
2021/07/27 10:35:35;;;;;;;;;0.80;0.80;;;;;32.54;53.92;97979.63;5055256;28;8847;-68
2021/07/27 10:38:11;;;;;;;;;1.00;1.00;;;;;32.52;53.76;97990.22;5055429;28;8886;-68
2021/07/27 10:40:46;;;;;;;;;0.80;0.80;;;;;32.43;54.00;97971.75;5054935;28;8858;-68
2021/07/27 10:43:25;;;;;;;;;0.00;0.00;;;;;32.47;54.19;97981.81;5054824;28;8846;-69
2021/07/27 10:46:01;;;;;;;;;1.60;1.60;;;;;32.47;53.96;97987.28;5054709;28;8912;-68
2021/07/27 10:48:36;;;;;;;;;1.20;1.20;;;;;32.43;54.20;97982.69;5054720;28;8851;-68
2021/07/27 10:51:05;;;;;;;;;2.00;2.00;;;;;32.49;54.32;97982.91;5054685;28;9693;-68
2021/07/27 10:53:35;;;;;;;;;2.00;2.00;;;;;32.49;54.27;97982.91;5054603;28;8854;-68
2021/07/27 10:56:10;;;;;;;;;1.20;1.20;;;;;32.32;54.24;97948.69;5054596;28;8851;-68
2021/07/27 10:58:44;;;;;;;;;0.00;0.00;;;;;32.47;54.03;97987.28;5054698;28;8940;-68
2021/07/27 11:01:13;;;;;;;;;0.60;0.60;;;;;32.45;54.17;97992.41;5054533;28;8850;-68
2021/07/27 11:03:42;;;;;;;;;1.20;1.20;;;;;32.43;54.27;97993.59;5054418;28;9599;-68
2021/07/27 11:06:10;;;;;;;;;1.80;1.80;;;;;32.45;54.27;97995.91;5054399;28;8864;-69
2021/07/27 11:08:39;;;;;;;;;1.00;1.00;;;;;32.43;54.26;97999.06;5054391;28;8935;-69
2021/07/27 11:11:13;;;;;;;;;1.80;1.40;;;;;32.51;54.08;97990.66;5053646;28;8854;-68
2021/07/27 11:13:53;;;;;;;;;2.00;2.00;;;;;32.54;53.91;97996.00;5054603;28;8854;-69
2021/07/27 11:16:23;;;;;;;;;0.40;0.40;;;;;32.60;54.16;97994.28;5054302;28;8928;-68
2021/07/27 11:18:51;;;;;;;;;1.80;1.80;;;;;32.65;53.94;97995.72;5054213;28;9587;-68
2021/07/27 11:21:20;;;;;;;;;1.00;1.00;;;;;32.67;53.98;97991.34;5054133;28;8838;-68
2021/07/27 11:23:49;;;;;;;;;1.80;1.80;;;;;32.69;53.95;97994.41;5054058;28;8858;-69
2021/07/27 11:26:17;;;;;;;;;1.40;1.40;;;;;32.69;53.90;97983.50;5053982;28;8861;-68
2021/07/27 11:28:46;;;;;;;;;1.00;1.00;;;;;32.70;53.83;97978.81;5053955;28;8857;-68
2021/07/27 11:31:19;;;;;;;;;1.20;1.20;;;;;32.68;53.79;97973.78;5053853;28;8920;-68
2021/07/27 11:33:51;;;;;;;;;0.80;0.80;;;;;32.57;53.92;97964.34;5053756;28;9039;-68
2021/07/27 11:36:27;;;;;;;;;1.00;1.00;;;;;32.56;53.97;97971.00;5053839;28;8846;-68
2021/07/27 11:39:07;;;;;;;;;2.00;2.00;;;;;32.56;53.99;97974.50;5054191;28;8847;-68
2021/07/27 11:41:36;;;;;;;;;1.00;1.00;;;;;32.52;54.25;97971.09;5053754;28;8839;-68
2021/07/27 11:44:04;;;;;;;;;1.80;1.80;;;;;32.47;54.31;97970.91;5053786;28;8855;-68
2021/07/27 11:46:38;;;;;;;;;1.40;1.40;;;;;32.45;54.49;97974.06;5053392;28;8889;-68
2021/07/27 11:49:08;;;;;;;;;1.00;1.00;;;;;32.42;54.60;97981.16;5053661;28;9614;-69
2021/07/27 11:51:38;;;;;;;;;2.00;1.00;;;;;32.39;54.55;97973.81;5053520;28;8846;-68
2021/07/27 11:54:08;;;;;;;;;1.00;1.00;;;;;32.36;54.43;97963.00;5053552;28;8846;-68
2021/07/27 11:56:47;;;;;;;;;1.00;1.00;;;;;32.37;54.60;97973.47;5053572;28;9706;-68
2021/07/27 11:59:26;;;;;;;;;1.00;1.00;;;;;32.34;54.54;97965.38;5053650;28;8924;-68
2021/07/27 12:01:56;;;;;;;;;0.20;0.20;;;;;32.37;54.76;97972.72;5053414;28;8850;-68
2021/07/27 12:04:25;;;;;;;;;1.00;1.00;;;;;32.37;54.68;97978.94;5053270;28;8838;-68
2021/07/27 12:06:57;;;;;;;;;2.00;2.00;;;;;32.36;54.85;97982.09;5053215;28;8843;-68
2021/07/27 12:09:26;;;;;;;;;1.80;1.80;;;;;32.36;54.92;97988.31;5053421;28;8827;-68
2021/07/27 12:11:55;;;;;;;;;1.20;1.20;;;;;32.29;55.09;97985.00;5053093;28;8843;-68
2021/07/27 12:14:23;;;;;;;;;1.80;1.80;;;;;32.32;55.10;97987.66;5053123;28;8911;-69
2021/07/27 12:16:52;;;;;;;;;2.80;2.80;;;;;32.28;55.16;97997.13;5053051;28;8892;-68
2021/07/27 12:19:21;;;;;;;;;2.40;2.40;;;;;32.32;55.13;98000.53;5052987;28;8842;-68
2021/07/27 12:21:52;;;;;;;;;2.40;2.40;;;;;32.31;55.17;98012.66;5053203;28;8874;-68
2021/07/27 12:24:21;;;;;;;;;3.00;3.00;;;;;32.28;55.25;98010.78;5052909;28;8839;-68
2021/07/27 12:26:49;;;;;;;;;3.00;3.00;;;;;32.24;55.98;98016.31;5052790;28;8842;-68
2021/07/27 12:29:18;;;;;;;;;2.60;2.60;;;;;32.22;55.79;98015.97;5052750;28;8842;-68
2021/07/27 12:31:46;;;;;;;;;2.80;2.80;;;;;32.20;55.85;98028.50;5052991;28;8847;-69
2021/07/27 12:34:14;;;;;;;;;3.00;3.00;;;;;32.17;55.95;98029.34;5052842;28;8862;-68
2021/07/27 12:36:44;;;;;;;;;2.20;2.20;;;;;32.07;55.88;98020.25;5052938;28;8835;-68